Time;durP1;ratioP1;P1;durP2;ratioP2;P2;SDS_P1;SDS_P2;PMS_P1;PMS_P2;Temp;Humidity;BMP_temperature;BMP_pressure;BME280_temperature;BME280_humidity;BME280_pressure;Samples;Min_cycle;Max_cycle;Signal;HPM_P1;HPM_P2
2022/07/20 00:00:52;;;;;;;7.40;3.38;;;;;;;;;;6267231;22;20051;-79
2022/07/20 00:03:18;;;;;;;14.15;3.75;;;;;;;;;;6241262;22;20655;-81
2022/07/20 00:05:47;;;;;;;14.50;4.03;;;;;;;;;;6267773;22;20011;-80
2022/07/20 00:08:13;;;;;;;10.88;3.65;;;;;;;;;;6240160;22;20027;-80
2022/07/20 00:13:25;;;;;;;11.23;4.35;;;;;;;;;;6238332;22;20026;-81
2022/07/20 00:15:51;;;;;;;13.55;3.78;;;;;;;;;;6215906;22;20471;-80
2022/07/20 00:18:18;;;;;;;6.85;3.28;;;;;;;;;;6238353;22;20451;-79
2022/07/20 00:20:44;;;;;;;13.10;3.90;;;;;;;;;;6267983;22;20015;-79
2022/07/20 00:23:10;;;;;;;15.18;4.55;;;;;;;;;;6239817;22;20069;-80
2022/07/20 00:25:42;;;;;;;18.35;4.28;;;;;;;;;;6267215;22;20019;-79
2022/07/20 00:28:08;;;;;;;21.40;4.00;;;;;;;;;;6238970;22;20412;-79
2022/07/20 00:30:35;;;;;;;8.43;3.65;;;;;;;;;;6267298;22;21260;-77
2022/07/20 00:33:01;;;;;;;21.45;3.85;;;;;;;;;;6267388;22;20544;-78
2022/07/20 00:35:27;;;;;;;14.30;3.35;;;;;;;;;;6266042;22;20053;-77
2022/07/20 00:37:53;;;;;;;14.55;3.75;;;;;;;;;;6266956;22;20019;-78
2022/07/20 00:40:19;;;;;;;16.98;3.80;;;;;;;;;;6267010;22;20015;-77
2022/07/20 00:42:45;;;;;;;9.30;3.70;;;;;;;;;;6266261;22;20023;-78
2022/07/20 00:45:11;;;;;;;13.98;3.40;;;;;;;;;;6267060;22;20023;-77
2022/07/20 00:47:37;;;;;;;15.60;3.67;;;;;;;;;;6238242;22;20027;-77
2022/07/20 00:50:04;;;;;;;13.30;3.35;;;;;;;;;;6240080;22;20099;-77
2022/07/20 00:52:30;;;;;;;15.35;3.63;;;;;;;;;;6239727;22;20342;-77
2022/07/20 00:55:02;;;;;;;8.10;3.38;;;;;;;;;;6267998;22;20081;-78
2022/07/20 00:57:29;;;;;;;6.25;3.33;;;;;;;;;;6241745;22;20051;-78
2022/07/20 00:59:55;;;;;;;7.18;3.72;;;;;;;;;;6267524;22;20022;-78
2022/07/20 01:02:21;;;;;;;7.97;3.25;;;;;;;;;;6267279;22;20317;-79
2022/07/20 01:04:47;;;;;;;7.03;3.30;;;;;;;;;;6266453;22;20015;-78
2022/07/20 01:07:13;;;;;;;6.80;3.25;;;;;;;;;;6266891;22;20051;-79
2022/07/20 01:09:39;;;;;;;4.95;3.55;;;;;;;;;;6266908;22;20019;-79
2022/07/20 01:12:05;;;;;;;11.15;3.35;;;;;;;;;;6240490;22;20041;-79
2022/07/20 01:14:31;;;;;;;9.48;3.28;;;;;;;;;;6265441;22;20047;-79
2022/07/20 01:16:57;;;;;;;9.10;3.33;;;;;;;;;;6240659;22;20410;-78
2022/07/20 01:19:23;;;;;;;5.85;3.17;;;;;;;;;;6266339;22;20470;-79
2022/07/20 01:21:49;;;;;;;9.18;3.67;;;;;;;;;;6214997;22;20809;-78
2022/07/20 01:24:16;;;;;;;6.47;3.40;;;;;;;;;;6266297;22;20102;-79
2022/07/20 01:26:43;;;;;;;5.47;3.58;;;;;;;;;;6238351;22;20068;-79
2022/07/20 01:29:10;;;;;;;8.95;3.78;;;;;;;;;;6266231;22;20012;-79
2022/07/20 01:31:36;;;;;;;7.55;3.88;;;;;;;;;;6239555;22;20027;-79
2022/07/20 01:34:02;;;;;;;7.38;3.88;;;;;;;;;;6188972;22;20081;-79
2022/07/20 01:36:28;;;;;;;7.38;3.47;;;;;;;;;;6266163;22;20098;-79
2022/07/20 01:38:54;;;;;;;10.20;3.65;;;;;;;;;;6239245;22;20486;-79
2022/07/20 01:41:20;;;;;;;18.30;4.03;;;;;;;;;;6266969;22;20011;-78
2022/07/20 01:43:46;;;;;;;16.05;4.55;;;;;;;;;;6239862;22;20534;-79
2022/07/20 01:46:13;;;;;;;31.48;4.53;;;;;;;;;;6269332;22;20463;-79
2022/07/20 01:48:39;;;;;;;18.02;4.43;;;;;;;;;;6240675;22;20478;-77
2022/07/20 01:51:05;;;;;;;11.07;3.92;;;;;;;;;;6241807;22;20020;-78
2022/07/20 01:53:31;;;;;;;13.25;4.03;;;;;;;;;;6214935;22;20024;-78
2022/07/20 01:55:57;;;;;;;10.82;3.30;;;;;;;;;;6268768;22;20028;-78
2022/07/20 01:58:23;;;;;;;6.90;3.60;;;;;;;;;;6267577;22;20475;-78
2022/07/20 02:00:50;;;;;;;6.80;3.35;;;;;;;;;;6240062;22;20015;-78
2022/07/20 02:03:17;;;;;;;5.72;3.50;;;;;;;;;;6268328;22;20789;-79
2022/07/20 02:05:43;;;;;;;5.25;3.00;;;;;;;;;;6241302;22;20452;-79
2022/07/20 02:08:09;;;;;;;7.65;3.35;;;;;;;;;;6240516;22;20034;-79
2022/07/20 02:10:36;;;;;;;11.15;3.53;;;;;;;;;;6266948;22;20011;-78
2022/07/20 02:13:02;;;;;;;6.65;3.33;;;;;;;;;;6268906;22;20348;-78
2022/07/20 02:18:13;;;;;;;8.95;3.25;;;;;;;;;;6240673;22;20061;-78
2022/07/20 02:20:40;;;;;;;10.93;3.28;;;;;;;;;;6268169;22;20024;-79
2022/07/20 02:23:07;;;;;;;4.75;3.03;;;;;;;;;;6268375;22;20015;-78
2022/07/20 02:25:35;;;;;;;5.18;3.30;;;;;;;;;;6267916;22;20023;-78
2022/07/20 02:28:01;;;;;;;11.43;3.05;;;;;;;;;;6267493;22;20401;-78
2022/07/20 02:30:27;;;;;;;7.53;3.10;;;;;;;;;;6239677;22;20467;-77
2022/07/20 02:32:53;;;;;;;14.60;3.42;;;;;;;;;;6240779;22;20022;-77
2022/07/20 02:35:19;;;;;;;18.90;3.95;;;;;;;;;;6240949;22;20019;-78
2022/07/20 02:37:45;;;;;;;8.77;3.22;;;;;;;;;;6267127;22;20092;-79
2022/07/20 02:40:12;;;;;;;13.20;4.20;;;;;;;;;;6239165;22;20011;-78
2022/07/20 02:42:38;;;;;;;11.15;3.30;;;;;;;;;;6241538;22;20102;-78
2022/07/20 02:45:05;;;;;;;8.52;3.30;;;;;;;;;;6268219;22;20104;-78
2022/07/20 02:47:31;;;;;;;12.63;3.38;;;;;;;;;;6268438;22;20090;-79
2022/07/20 02:49:57;;;;;;;16.30;4.20;;;;;;;;;;6241496;22;20118;-79
2022/07/20 02:52:23;;;;;;;8.07;3.97;;;;;;;;;;6241929;22;20039;-79
2022/07/20 02:54:49;;;;;;;10.05;3.42;;;;;;;;;;6241010;22;20030;-79
2022/07/20 02:57:15;;;;;;;10.40;4.20;;;;;;;;;;6240922;22;20019;-78
2022/07/20 02:59:41;;;;;;;8.65;4.43;;;;;;;;;;6268490;22;20015;-79
2022/07/20 03:02:08;;;;;;;15.15;4.45;;;;;;;;;;6216269;22;20020;-78
2022/07/20 03:04:34;;;;;;;10.32;4.13;;;;;;;;;;6241670;22;20065;-78
2022/07/20 03:07:00;;;;;;;16.73;5.13;;;;;;;;;;6239242;22;20482;-78
2022/07/20 03:09:26;;;;;;;14.60;4.82;;;;;;;;;;6268271;22;20447;-78
2022/07/20 03:11:52;;;;;;;11.25;4.45;;;;;;;;;;6240062;22;20026;-78
2022/07/20 03:14:18;;;;;;;8.10;4.60;;;;;;;;;;6267011;22;20023;-78
2022/07/20 03:16:44;;;;;;;10.02;4.90;;;;;;;;;;6268118;22;20066;-78
2022/07/20 03:19:10;;;;;;;8.48;4.80;;;;;;;;;;6243452;22;20016;-79
2022/07/20 03:21:36;;;;;;;14.30;5.05;;;;;;;;;;6273636;22;20137;-79
2022/07/20 03:24:02;;;;;;;19.27;4.53;;;;;;;;;;6276424;22;20027;-78
2022/07/20 03:26:28;;;;;;;16.08;4.78;;;;;;;;;;6247679;22;20027;-78
2022/07/20 03:28:54;;;;;;;25.88;4.78;;;;;;;;;;6250266;22;20542;-78
2022/07/20 03:31:20;;;;;;;18.88;5.15;;;;;;;;;;6247303;22;20535;-78
2022/07/20 03:33:46;;;;;;;14.73;4.75;;;;;;;;;;6271364;22;20486;-79
2022/07/20 03:36:12;;;;;;;18.55;4.40;;;;;;;;;;6242155;22;20020;-78
2022/07/20 03:38:38;;;;;;;10.35;4.28;;;;;;;;;;6241999;22;20012;-78
2022/07/20 03:41:04;;;;;;;12.75;4.55;;;;;;;;;;6241754;22;20099;-78
2022/07/20 03:43:30;;;;;;;7.30;3.80;;;;;;;;;;6216487;22;20019;-79
2022/07/20 03:45:56;;;;;;;20.63;4.55;;;;;;;;;;6267688;22;20072;-79
2022/07/20 03:48:22;;;;;;;20.58;5.72;;;;;;;;;;6268884;22;20019;-78
2022/07/20 03:50:49;;;;;;;12.70;4.72;;;;;;;;;;6216440;22;20095;-78
2022/07/20 03:53:15;;;;;;;9.85;4.72;;;;;;;;;;6267232;22;20015;-79
2022/07/20 03:55:46;;;;;;;10.55;4.55;;;;;;;;;;6239632;22;20023;-77
2022/07/20 03:58:12;;;;;;;7.85;4.57;;;;;;;;;;6267034;22;20031;-77
2022/07/20 04:00:39;;;;;;;8.95;4.75;;;;;;;;;;6239474;22;20408;-78
2022/07/20 04:03:06;;;;;;;7.68;4.10;;;;;;;;;;6240742;22;20011;-78
2022/07/20 04:05:32;;;;;;;19.02;4.68;;;;;;;;;;6266344;22;20069;-79
2022/07/20 04:07:58;;;;;;;12.98;4.57;;;;;;;;;;6264714;22;20023;-79
2022/07/20 04:10:24;;;;;;;8.45;4.07;;;;;;;;;;6213697;22;20019;-79
2022/07/20 04:12:50;;;;;;;5.82;3.75;;;;;;;;;;6265735;22;20053;-79
2022/07/20 04:15:16;;;;;;;8.50;4.15;;;;;;;;;;6238210;22;20100;-78
2022/07/20 04:17:42;;;;;;;9.57;4.40;;;;;;;;;;6267510;22;20027;-78
2022/07/20 04:20:09;;;;;;;10.90;4.82;;;;;;;;;;6214501;22;20023;-78
2022/07/20 04:22:35;;;;;;;14.35;5.20;;;;;;;;;;6267342;22;20050;-78
2022/07/20 04:25:01;;;;;;;12.40;4.80;;;;;;;;;;6265503;22;20488;-79
2022/07/20 04:27:29;;;;;;;9.57;4.50;;;;;;;;;;6267286;22;20022;-79
2022/07/20 04:29:55;;;;;;;7.65;4.68;;;;;;;;;;6212611;22;20024;-78
2022/07/20 04:32:21;;;;;;;15.32;4.78;;;;;;;;;;6213621;22;20054;-78
2022/07/20 04:34:47;;;;;;;11.63;4.32;;;;;;;;;;6267990;22;20466;-78
2022/07/20 04:37:13;;;;;;;13.95;4.80;;;;;;;;;;6268305;22;20030;-79
2022/07/20 04:39:39;;;;;;;12.68;4.32;;;;;;;;;;6267999;22;20091;-78
2022/07/20 04:42:06;;;;;;;15.02;4.35;;;;;;;;;;6214624;22;20016;-79
2022/07/20 04:44:32;;;;;;;9.20;4.10;;;;;;;;;;6268328;22;20023;-79
2022/07/20 04:46:58;;;;;;;16.23;4.47;;;;;;;;;;6267786;22;20166;-79
2022/07/20 04:49:24;;;;;;;18.40;4.88;;;;;;;;;;6241530;22;20352;-80
2022/07/20 04:51:50;;;;;;;20.73;5.10;;;;;;;;;;6268537;22;20348;-79
2022/07/20 04:54:18;;;;;;;20.33;4.53;;;;;;;;;;6267715;22;20016;-78
2022/07/20 04:56:44;;;;;;;19.35;4.97;;;;;;;;;;6214129;22;20470;-78
2022/07/20 04:59:10;;;;;;;11.82;4.28;;;;;;;;;;6240081;22;20098;-79
2022/07/20 05:01:36;;;;;;;13.00;3.67;;;;;;;;;;6269902;22;20020;-79
2022/07/20 05:04:02;;;;;;;14.80;4.03;;;;;;;;;;6269152;22;20073;-79
2022/07/20 05:06:29;;;;;;;22.42;4.95;;;;;;;;;;6269775;22;20107;-78
2022/07/20 05:08:55;;;;;;;16.63;4.50;;;;;;;;;;6239561;22;20022;-78
2022/07/20 05:11:21;;;;;;;20.48;4.72;;;;;;;;;;6267435;22;20026;-78
2022/07/20 05:13:48;;;;;;;17.20;4.88;;;;;;;;;;6216277;22;20026;-79
2022/07/20 05:16:15;;;;;;;11.30;3.75;;;;;;;;;;6216437;22;20075;-78
2022/07/20 05:18:41;;;;;;;7.70;3.58;;;;;;;;;;6270398;22;20339;-78
2022/07/20 05:21:07;;;;;;;12.98;3.70;;;;;;;;;;6242867;22;20039;-78
2022/07/20 05:23:33;;;;;;;9.65;3.25;;;;;;;;;;6272114;22;20102;-79
2022/07/20 05:25:59;;;;;;;5.88;3.88;;;;;;;;;;6243283;22;20349;-78
2022/07/20 05:28:25;;;;;;;7.75;3.75;;;;;;;;;;6270058;22;20039;-79
2022/07/20 05:30:51;;;;;;;9.20;3.83;;;;;;;;;;6242494;22;20019;-78
2022/07/20 05:33:18;;;;;;;8.80;3.63;;;;;;;;;;6270977;22;20022;-78
2022/07/20 05:35:44;;;;;;;7.55;4.20;;;;;;;;;;6271199;22;20101;-78
2022/07/20 05:38:10;;;;;;;5.63;3.90;;;;;;;;;;6270963;22;20024;-78
2022/07/20 05:40:37;;;;;;;7.70;3.67;;;;;;;;;;6243807;22;20023;-79
2022/07/20 05:43:03;;;;;;;10.70;3.70;;;;;;;;;;6242373;22;20027;-78
2022/07/20 05:45:29;;;;;;;7.90;3.80;;;;;;;;;;6271507;22;20038;-79
2022/07/20 05:47:55;;;;;;;7.63;3.88;;;;;;;;;;6270851;22;20023;-77
2022/07/20 05:50:21;;;;;;;7.93;4.20;;;;;;;;;;6243644;22;20012;-78
2022/07/20 05:52:47;;;;;;;6.68;3.75;;;;;;;;;;6245018;22;20471;-78
2022/07/20 05:55:13;;;;;;;10.23;3.50;;;;;;;;;;6244132;22;20366;-79
2022/07/20 05:57:39;;;;;;;10.80;3.67;;;;;;;;;;6274669;22;20012;-78
2022/07/20 06:00:06;;;;;;;11.65;4.40;;;;;;;;;;6218153;22;20092;-77
2022/07/20 06:02:32;;;;;;;7.18;4.07;;;;;;;;;;6271144;22;20347;-79
2022/07/20 06:04:59;;;;;;;11.13;3.72;;;;;;;;;;6267132;22;20479;-78
2022/07/20 06:07:25;;;;;;;7.43;3.95;;;;;;;;;;6270490;22;20031;-79
2022/07/20 06:09:52;;;;;;;9.48;3.60;;;;;;;;;;6268712;22;20058;-79
2022/07/20 06:12:18;;;;;;;9.73;3.63;;;;;;;;;;6267935;22;20050;-77
2022/07/20 06:14:44;;;;;;;7.43;3.83;;;;;;;;;;6268328;22;20023;-77
2022/07/20 06:17:11;;;;;;;7.05;3.63;;;;;;;;;;6267878;22;20015;-78
2022/07/20 06:19:37;;;;;;;12.15;3.45;;;;;;;;;;6244840;22;20121;-79
2022/07/20 06:22:03;;;;;;;7.15;3.58;;;;;;;;;;6270237;22;20012;-79
2022/07/20 06:24:29;;;;;;;8.60;3.40;;;;;;;;;;6272808;22;20355;-78
2022/07/20 06:26:56;;;;;;;10.70;4.13;;;;;;;;;;6240960;22;20363;-77
2022/07/20 06:29:22;;;;;;;8.40;3.55;;;;;;;;;;6270807;22;20022;-79
2022/07/20 06:31:48;;;;;;;8.30;3.50;;;;;;;;;;6268598;22;20030;-78
2022/07/20 06:34:14;;;;;;;11.18;3.78;;;;;;;;;;6267568;22;20023;-78
2022/07/20 06:36:42;;;;;;;7.93;3.45;;;;;;;;;;6267175;22;20027;-78
2022/07/20 06:39:08;;;;;;;9.23;3.67;;;;;;;;;;6266589;22;20016;-79
2022/07/20 06:41:34;;;;;;;8.27;3.70;;;;;;;;;;6267697;22;20094;-78
2022/07/20 06:44:00;;;;;;;7.60;4.10;;;;;;;;;;6215564;22;20027;-79
2022/07/20 06:46:26;;;;;;;8.50;3.80;;;;;;;;;;6267758;22;20111;-79
2022/07/20 06:48:52;;;;;;;10.43;3.50;;;;;;;;;;6216403;22;20019;-78
2022/07/20 06:51:18;;;;;;;11.18;3.95;;;;;;;;;;6268936;22;20070;-78
2022/07/20 06:53:45;;;;;;;8.60;3.90;;;;;;;;;;6241331;22;20015;-79
2022/07/20 06:56:11;;;;;;;6.25;4.15;;;;;;;;;;6266429;22;20019;-79
2022/07/20 06:58:37;;;;;;;10.98;3.70;;;;;;;;;;6268789;22;20015;-79
2022/07/20 07:01:03;;;;;;;9.43;3.50;;;;;;;;;;6267808;22;20343;-80
2022/07/20 07:03:29;;;;;;;8.25;3.83;;;;;;;;;;6268598;22;20511;-79
2022/07/20 07:05:56;;;;;;;5.53;3.85;;;;;;;;;;6267919;22;20379;-79
2022/07/20 07:08:22;;;;;;;13.20;4.20;;;;;;;;;;6269396;22;20023;-78
2022/07/20 07:10:48;;;;;;;9.52;4.15;;;;;;;;;;6246007;22;20030;-79
2022/07/20 07:13:14;;;;;;;5.93;3.47;;;;;;;;;;6276009;22;20019;-79
2022/07/20 07:15:40;;;;;;;9.23;4.30;;;;;;;;;;6283549;22;20027;-79
2022/07/20 07:18:06;;;;;;;8.48;4.18;;;;;;;;;;6256223;22;20061;-78
2022/07/20 07:20:32;;;;;;;9.25;4.03;;;;;;;;;;6255366;22;20024;-79
2022/07/20 07:22:58;;;;;;;12.38;3.80;;;;;;;;;;6231094;22;20022;-77
2022/07/20 07:25:24;;;;;;;11.82;4.00;;;;;;;;;;6248096;22;20050;-78
2022/07/20 07:27:50;;;;;;;13.60;3.80;;;;;;;;;;6243112;22;20016;-79
2022/07/20 07:30:16;;;;;;;6.70;3.72;;;;;;;;;;6241894;22;20024;-78
2022/07/20 07:32:42;;;;;;;9.05;4.10;;;;;;;;;;6268024;22;20474;-78
2022/07/20 07:35:09;;;;;;;14.75;4.53;;;;;;;;;;6266688;22;20509;-78
2022/07/20 07:37:37;;;;;;;8.18;3.88;;;;;;;;;;6267796;22;20019;-77
2022/07/20 07:40:03;;;;;;;9.68;3.75;;;;;;;;;;6214397;22;20019;-78
2022/07/20 07:42:29;;;;;;;13.98;4.07;;;;;;;;;;6267216;22;20490;-78
2022/07/20 07:44:56;;;;;;;6.13;3.92;;;;;;;;;;6266522;22;20016;-79
2022/07/20 07:47:23;;;;;;;10.77;4.22;;;;;;;;;;6266939;22;20016;-77
2022/07/20 07:49:49;;;;;;;9.10;3.97;;;;;;;;;;6266506;22;20329;-78
2022/07/20 07:52:15;;;;;;;20.60;4.10;;;;;;;;;;6266984;22;20423;-78
2022/07/20 07:54:41;;;;;;;10.70;4.32;;;;;;;;;;6214839;22;20724;-79
2022/07/20 07:57:08;;;;;;;6.78;3.90;;;;;;;;;;6266494;22;20321;-78
2022/07/20 07:59:35;;;;;;;8.35;4.32;;;;;;;;;;6214684;22;20862;-79
2022/07/20 08:02:01;;;;;;;8.07;4.20;;;;;;;;;;6213341;22;20066;-78
2022/07/20 08:04:27;;;;;;;8.55;4.40;;;;;;;;;;6266841;22;20094;-78
2022/07/20 08:06:53;;;;;;;18.98;4.70;;;;;;;;;;6266818;22;20444;-78
2022/07/20 08:09:19;;;;;;;7.63;4.55;;;;;;;;;;6266694;22;20051;-79
2022/07/20 08:11:46;;;;;;;8.82;4.45;;;;;;;;;;6269482;22;20012;-78
2022/07/20 08:14:12;;;;;;;8.68;4.10;;;;;;;;;;6267675;22;20022;-78
2022/07/20 08:16:38;;;;;;;9.95;4.30;;;;;;;;;;6268389;22;20024;-79
2022/07/20 08:19:04;;;;;;;10.88;4.45;;;;;;;;;;6215384;22;20016;-78
2022/07/20 08:21:31;;;;;;;13.73;4.95;;;;;;;;;;6269465;22;20022;-79
2022/07/20 08:23:57;;;;;;;10.30;4.10;;;;;;;;;;6242074;22;20050;-78
2022/07/20 08:26:23;;;;;;;7.78;4.65;;;;;;;;;;6268685;22;20047;-78
2022/07/20 08:28:49;;;;;;;8.43;4.45;;;;;;;;;;6269083;22;20016;-79
2022/07/20 08:31:15;;;;;;;7.85;4.97;;;;;;;;;;6268364;22;20105;-79
2022/07/20 08:33:42;;;;;;;37.60;6.45;;;;;;;;;;6242127;22;20105;-78
2022/07/20 08:36:08;;;;;;;8.50;4.80;;;;;;;;;;6241694;22;20019;-79
2022/07/20 08:38:34;;;;;;;10.68;5.07;;;;;;;;;;6269513;22;20405;-79
2022/07/20 08:41:01;;;;;;;9.93;4.55;;;;;;;;;;6240951;22;20024;-79
2022/07/20 08:43:29;;;;;;;10.00;4.85;;;;;;;;;;6269643;22;20016;-79
2022/07/20 08:45:55;;;;;;;8.80;4.88;;;;;;;;;;6241349;22;20091;-79
2022/07/20 08:48:21;;;;;;;7.47;5.32;;;;;;;;;;6269575;22;20479;-79
2022/07/20 08:50:48;;;;;;;12.50;5.40;;;;;;;;;;6269084;22;20051;-80
2022/07/20 08:53:14;;;;;;;24.98;6.28;;;;;;;;;;6242325;22;20427;-79
2022/07/20 08:55:40;;;;;;;12.13;6.15;;;;;;;;;;6217196;22;20210;-79
2022/07/20 08:58:07;;;;;;;11.07;6.55;;;;;;;;;;6268452;22;20348;-79
2022/07/20 09:00:33;;;;;;;13.02;6.15;;;;;;;;;;6269209;22;20087;-79
2022/07/20 09:03:01;;;;;;;14.60;6.88;;;;;;;;;;6268100;22;20039;-80
2022/07/20 09:05:28;;;;;;;12.63;6.50;;;;;;;;;;6268179;22;20117;-80
2022/07/20 09:07:56;;;;;;;29.42;7.95;;;;;;;;;;6242200;22;20023;-80
2022/07/20 09:10:25;;;;;;;15.23;7.03;;;;;;;;;;6268976;22;20044;-78
2022/07/20 09:12:53;;;;;;;14.13;8.57;;;;;;;;;;6269365;22;20546;-77
2022/07/20 09:15:26;;;;;;;15.77;8.13;;;;;;;;;;6238874;22;20065;-79
2022/07/20 09:18:06;;;;;;;14.10;7.97;;;;;;;;;;6269325;22;20023;-78
2022/07/20 09:20:34;;;;;;;19.83;8.68;;;;;;;;;;6242198;22;20082;-79
2022/07/20 09:23:04;;;;;;;21.30;9.90;;;;;;;;;;6217841;22;20015;-79
2022/07/20 09:25:31;;;;;;;20.35;10.82;;;;;;;;;;6269648;22;20011;-79
2022/07/20 09:27:57;;;;;;;18.80;10.50;;;;;;;;;;6269415;22;20030;-79
2022/07/20 09:30:23;;;;;;;14.43;10.10;;;;;;;;;;6243492;22;20478;-79
2022/07/20 09:32:54;;;;;;;19.35;10.77;;;;;;;;;;6243180;22;20020;-79
2022/07/20 09:35:21;;;;;;;22.40;11.48;;;;;;;;;;6269137;22;20034;-79
2022/07/20 09:37:48;;;;;;;23.08;11.52;;;;;;;;;;6240109;22;20015;-78
2022/07/20 09:40:14;;;;;;;23.05;12.25;;;;;;;;;;6268649;22;20340;-78
2022/07/20 09:42:41;;;;;;;19.42;11.85;;;;;;;;;;6241571;22;20523;-77
2022/07/20 09:45:20;;;;;;;20.25;12.55;;;;;;;;;;6241347;22;20514;-78
2022/07/20 09:48:12;;;;;;;22.42;13.50;;;;;;;;;;6241988;22;20070;-78
2022/07/20 09:50:45;;;;;;;19.20;13.63;;;;;;;;;;6240721;22;20023;-79
2022/07/20 09:53:12;;;;;;;24.02;14.10;;;;;;;;;;6269245;22;20019;-79
2022/07/20 09:55:39;;;;;;;20.17;14.68;;;;;;;;;;6242258;22;20043;-79
2022/07/20 09:58:06;;;;;;;38.20;17.42;;;;;;;;;;6241058;22;20733;-79
2022/07/20 10:00:36;;;;;;;25.90;17.58;;;;;;;;;;6269339;22;20106;-79
2022/07/20 10:03:03;;;;;;;28.52;18.60;;;;;;;;;;6241366;22;20020;-79
2022/07/20 10:05:31;;;;;;;32.08;19.15;;;;;;;;;;6270932;22;20011;-78
2022/07/20 10:08:01;;;;;;;30.25;19.42;;;;;;;;;;6243125;22;20411;-79
2022/07/20 10:10:27;;;;;;;29.63;19.23;;;;;;;;;;6243869;22;20031;-79
2022/07/20 10:12:54;;;;;;;33.67;20.77;;;;;;;;;;6243588;22;20015;-79
2022/07/20 10:15:24;;;;;;;28.55;19.33;;;;;;;;;;6270509;22;20456;-79
2022/07/20 10:17:50;;;;;;;31.27;19.17;;;;;;;;;;6269796;22;20024;-79
2022/07/20 10:20:36;;;;;;;31.42;19.30;;;;;;;;;;6268764;22;20015;-80
2022/07/20 10:23:26;;;;;;;30.15;20.42;;;;;;;;;;6243415;22;20863;-80
2022/07/20 10:25:53;;;;;;;33.00;19.33;;;;;;;;;;6247648;22;20019;-80
2022/07/20 10:28:25;;;;;;;32.00;18.67;;;;;;;;;;6269396;22;20015;-81
2022/07/20 10:31:02;;;;;;;29.37;18.33;;;;;;;;;;6270860;22;20532;-80
2022/07/20 10:33:28;;;;;;;30.48;18.80;;;;;;;;;;6269343;22;20514;-80
2022/07/20 10:38:40;;;;;;;24.45;17.23;;;;;;;;;;6270674;22;20024;-80
2022/07/20 10:44:10;;;;;;;31.92;19.08;;;;;;;;;;6270259;22;20043;-80
2022/07/20 10:46:36;;;;;;;26.85;18.15;;;;;;;;;;6242076;22;20474;-79
2022/07/20 10:49:03;;;;;;;31.35;18.27;;;;;;;;;;6242580;22;20094;-79
2022/07/20 10:51:29;;;;;;;34.38;18.23;;;;;;;;;;6241935;22;20439;-79
2022/07/20 10:53:55;;;;;;;27.92;17.13;;;;;;;;;;6218161;22;20474;-80
2022/07/20 10:56:30;;;;;;;29.15;17.52;;;;;;;;;;6242711;22;20033;-79
2022/07/20 10:59:00;;;;;;;29.27;18.27;;;;;;;;;;6242285;22;20031;-80
2022/07/20 11:01:26;;;;;;;24.13;17.80;;;;;;;;;;6270523;22;20360;-79
2022/07/20 11:03:52;;;;;;;35.35;17.02;;;;;;;;;;6271229;22;20344;-79
2022/07/20 11:06:25;;;;;;;21.90;15.20;;;;;;;;;;6273535;22;20026;-80
2022/07/20 11:08:58;;;;;;;22.65;14.23;;;;;;;;;;6281171;22;20483;-79
2022/07/20 11:11:29;;;;;;;18.77;12.35;;;;;;;;;;6255644;22;20023;-79
2022/07/20 11:13:56;;;;;;;17.35;12.85;;;;;;;;;;6284756;22;20023;-78
2022/07/20 11:16:23;;;;;;;22.58;12.52;;;;;;;;;;6285250;22;20019;-79
2022/07/20 11:18:50;;;;;;;22.30;13.00;;;;;;;;;;6252304;22;20463;-79
2022/07/20 11:21:18;;;;;;;22.88;12.65;;;;;;;;;;6242626;22;20033;-79
2022/07/20 11:23:51;;;;;;;22.00;12.00;;;;;;;;;;6269376;22;20270;-79
2022/07/20 11:26:18;;;;;;;20.23;11.73;;;;;;;;;;6266925;22;20058;-80
2022/07/20 11:28:48;;;;;;;20.20;11.93;;;;;;;;;;6239026;22;20070;-80
2022/07/20 11:31:16;;;;;;;28.33;12.18;;;;;;;;;;6240666;22;20015;-79
2022/07/20 11:33:43;;;;;;;17.33;11.43;;;;;;;;;;6265859;22;20475;-80
2022/07/20 11:36:12;;;;;;;15.02;11.25;;;;;;;;;;6268488;22;20019;-80
2022/07/20 11:38:59;;;;;;;15.82;11.00;;;;;;;;;;6267691;22;20011;-80
2022/07/20 11:41:28;;;;;;;15.52;11.35;;;;;;;;;;6267031;22;20019;-79
2022/07/20 11:43:54;;;;;;;18.17;11.60;;;;;;;;;;6240118;22;20122;-79
2022/07/20 11:46:24;;;;;;;19.15;11.05;;;;;;;;;;6266119;22;20094;-80
2022/07/20 11:48:55;;;;;;;17.63;11.15;;;;;;;;;;6269166;22;20411;-78
2022/07/20 11:51:21;;;;;;;21.08;11.35;;;;;;;;;;6239814;22;20028;-79
2022/07/20 11:53:47;;;;;;;15.05;11.25;;;;;;;;;;6268235;22;20012;-79
2022/07/20 11:56:14;;;;;;;12.38;10.63;;;;;;;;;;6238160;22;20027;-79
2022/07/20 11:58:41;;;;;;;22.77;11.00;;;;;;;;;;6267049;22;20497;-79
2022/07/20 12:01:14;;;;;;;16.35;10.80;;;;;;;;;;6238842;22;20024;-79
2022/07/20 12:03:40;;;;;;;;;;;;;;;;;;6239208;22;20012;-79
2022/07/20 12:06:08;;;;;;;18.75;10.90;;;;;;;;;;6266570;22;19938;-79
2022/07/20 12:08:35;;;;;;;18.33;11.23;;;;;;;;;;6239483;22;20027;-79
2022/07/20 12:11:01;;;;;;;14.68;10.77;;;;;;;;;;6243153;22;20023;-80
2022/07/20 12:13:28;;;;;;;15.77;11.50;;;;;;;;;;6268832;22;20063;-79
2022/07/20 12:15:55;;;;;;;20.63;11.30;;;;;;;;;;6269817;22;20019;-78
2022/07/20 12:18:38;;;;;;;14.48;10.82;;;;;;;;;;6266525;22;20016;-78
2022/07/20 12:21:05;;;;;;;17.80;10.93;;;;;;;;;;6265511;22;20091;-79
2022/07/20 12:23:32;;;;;;;13.70;10.07;;;;;;;;;;6267133;22;20019;-79
2022/07/20 12:25:58;;;;;;;20.90;10.10;;;;;;;;;;6237783;22;20818;-80
2022/07/20 12:28:31;;;;;;;14.45;10.02;;;;;;;;;;6267460;22;20019;-80
2022/07/20 12:31:11;;;;;;;19.10;10.27;;;;;;;;;;6240059;22;20027;-80
2022/07/20 12:34:12;;;;;;;19.92;9.82;;;33.10;95.50;;;;;;6241684;22;20483;-79
2022/07/20 12:36:43;;;;;;;18.38;9.55;;;;;;;;;;6241567;22;20034;-80
2022/07/20 12:39:10;;;;;;;18.40;9.80;;;;;;;;;;6239219;22;20069;-79
2022/07/20 12:41:37;;;;;;;19.38;9.82;;;;;;;;;;6242336;22;20031;-79
2022/07/20 12:44:36;;;;;;;15.55;9.63;;;;;;;;;;6266947;22;20122;-81
2022/07/20 12:47:08;;;;;;;19.23;9.45;;;;;;;;;;6168758;22;20355;-81
2022/07/20 12:49:34;;;;;;;16.52;9.35;;;;;;;;;;6268362;22;20027;-80
2022/07/20 12:52:00;;;;;;;11.32;8.57;;;;;;;;;;6268111;22;20020;-81
2022/07/20 12:54:30;;;;;;;12.05;7.32;;;;;;;;;;6240654;22;20023;-80
2022/07/20 12:56:59;;;;;;;11.18;6.63;;;;;;;;;;6267808;22;20020;-80
2022/07/20 12:59:25;;;;;;;11.82;7.80;;;;;;;;;;6267287;22;20081;-79
2022/07/20 13:01:52;;;;;;;12.45;7.68;;;;;;;;;;6266368;22;20027;-79
2022/07/20 13:04:22;;;;;;;14.43;7.75;;;;;;;;;;6240698;22;20022;-79
2022/07/20 13:06:50;;;;;;;11.82;7.03;;;;;;;;;;6267259;22;20062;-80
2022/07/20 13:09:17;;;;;;;11.07;7.43;;;;;;;;;;6239907;22;20851;-80
2022/07/20 13:11:44;;;;;;;10.80;6.88;;;;;;;;;;6239951;22;20023;-81
2022/07/20 13:14:11;;;;;;;9.25;6.15;;;;;;;;;;6266913;22;20023;-79
2022/07/20 13:16:37;;;;;;;10.57;6.72;;;;;;;;;;6267309;22;20478;-80
2022/07/20 13:19:04;;;;;;;9.93;6.45;;;;;;;;;;6214790;22;20476;-79
2022/07/20 13:21:30;;;;;;;9.45;6.25;;;;;;;;;;6267097;22;20094;-80
2022/07/20 13:23:59;;;;;;;10.13;6.32;;;;;;;;;;6267811;22;20015;-80
2022/07/20 13:26:25;;;;;;;10.75;6.00;;;;;;;;;;6267305;22;20016;-80
2022/07/20 13:28:51;;;;;;;9.35;6.10;;;;;;;;;;6189795;22;20016;-80
2022/07/20 13:31:25;;;;;;;9.27;5.90;;;;;;;;;;6241542;22;20020;-81
2022/07/20 13:33:52;;;;;;;9.57;6.45;;;;;;;;;;6238532;22;20447;-79
2022/07/20 13:36:21;;;;;;;14.48;7.10;;;;;;;;;;6216389;22;20063;-79
2022/07/20 13:38:48;;;;;;;8.90;7.20;;;;;;;;;;6267802;22;20355;-80
2022/07/20 13:41:16;;;;;;;8.98;7.20;;;;;;;;;;6269601;22;20073;-80
2022/07/20 13:43:51;;;;;;;13.15;7.45;;;;;;;;;;6268591;22;20102;-81
2022/07/20 13:46:18;;;;;;;13.38;8.27;;;;;;;;;;6242887;22;20015;-80
2022/07/20 13:48:44;;;;;;;9.50;7.57;;;;;;;;;;6268103;22;20011;-80
2022/07/20 13:51:10;;;;;;;14.90;7.85;;;;;;;;;;6269368;22;20483;-79
2022/07/20 13:53:36;;;;;;;15.75;7.97;;;;;;;;;;6268738;22;20019;-79
2022/07/20 13:56:04;;;;;;;10.48;8.05;;;;;;;;;;6270104;22;20024;-80
2022/07/20 13:58:30;;;;;;;12.55;7.53;;;;;;;;;;6269362;22;20419;-78
2022/07/20 14:00:56;;;;;;;15.55;8.70;;;;;;;;;;6268397;22;20019;-79
2022/07/20 14:03:22;;;;;;;12.63;8.38;;;;;;;;;;6268942;22;20134;-81
2022/07/20 14:05:48;;;;;;;10.85;8.45;;;;;;;;;;6268187;22;20024;-80
2022/07/20 14:08:14;;;;;;;14.02;7.93;;;;;;;;;;6268025;22;20016;-79
2022/07/20 14:10:41;;;;;;;8.77;7.03;;;;;;;;;;6214637;22;20026;-79
2022/07/20 14:13:07;;;;;;;11.05;7.18;;;;;;;;;;6269608;22;20076;-80
2022/07/20 14:15:33;;;;;;;19.02;7.85;;;;;;;;;;6268071;22;20019;-78
2022/07/20 14:17:59;;;;;;;11.85;8.52;;;;;;;;;;6269656;22;20015;-79
2022/07/20 14:20:26;;;;;;;11.70;8.45;;;;;;;;;;6270976;22;20020;-80
2022/07/20 14:22:52;;;;;;;10.55;7.50;;;;;;;;;;6270046;22;20024;-80
2022/07/20 14:25:18;;;;;;;10.63;7.28;;;;;;;;;;6243807;22;20335;-80
2022/07/20 14:27:44;;;;;;;8.63;6.60;;;;;;;;;;6243582;22;20022;-81
2022/07/20 14:30:11;;;;;;;11.38;6.72;;;;;;;;;;6272570;22;20011;-79
2022/07/20 14:32:37;;;;;;;10.68;6.72;;;;;;;;;;6271788;22;20015;-79
2022/07/20 14:35:04;;;;;;;10.25;6.53;;;;;;;;;;6242626;22;20416;-80
2022/07/20 14:37:36;;;;;;;8.38;6.40;;;;;;;;;;6270344;22;20357;-80
2022/07/20 14:40:04;;;;;;;8.40;6.25;;;;;;;;;;6268186;22;20460;-80
2022/07/20 14:42:30;;;;;;;9.68;6.72;;;;;;;;;;6270423;22;20100;-80